createdAt,value
2023-05-21T00:01:34.715Z,17.00
2023-05-21T00:04:06.210Z,15.75
2023-05-21T00:06:37.545Z,18.50
2023-05-21T00:09:08.044Z,15.40
2023-05-21T00:11:37.566Z,16.42
2023-05-21T00:14:07.259Z,17.17
2023-05-21T00:16:36.834Z,16.95
2023-05-21T00:19:06.491Z,16.50
2023-05-21T00:21:37.340Z,16.17
2023-05-21T00:24:08.186Z,16.92
2023-05-21T00:26:37.706Z,16.48
2023-05-21T00:29:07.616Z,16.30
2023-05-21T00:31:37.263Z,16.45
2023-05-21T00:34:06.831Z,16.27
2023-05-21T00:36:38.096Z,17.23
2023-05-21T00:39:08.839Z,16.55
2023-05-21T00:41:40.134Z,15.65
2023-05-21T00:44:10.192Z,15.48
2023-05-21T00:46:41.228Z,14.35
2023-05-21T00:49:11.197Z,15.38
2023-05-21T00:51:42.341Z,15.70
2023-05-21T00:54:12.010Z,16.23
2023-05-21T00:56:41.709Z,17.02
2023-05-21T00:59:11.623Z,16.33
2023-05-21T01:01:41.252Z,16.27
2023-05-21T01:04:11.059Z,17.00
2023-05-21T01:06:42.590Z,16.70
2023-05-21T01:09:12.416Z,16.33
2023-05-21T01:11:46.214Z,17.25
2023-05-21T01:14:18.009Z,17.13
2023-05-21T01:16:52.189Z,15.48
2023-05-21T01:19:24.054Z,16.42
2023-05-21T01:22:07.020Z,16.67
2023-05-21T01:24:39.127Z,16.35
2023-05-21T01:27:10.426Z,17.38
2023-05-21T01:29:40.003Z,18.60
2023-05-21T01:32:19.273Z,16.92
2023-05-21T01:35:01.863Z,17.02
2023-05-21T01:37:39.232Z,16.55
2023-05-21T01:40:19.471Z,17.48
2023-05-21T01:42:49.519Z,18.20
2023-05-21T01:45:19.749Z,16.63
2023-05-21T01:47:53.203Z,18.65
2023-05-21T01:50:25.731Z,16.25
2023-05-21T01:52:58.574Z,16.63
2023-05-21T01:55:31.334Z,15.90
2023-05-21T02:00:32.712Z,17.38
2023-05-21T02:03:02.855Z,16.42
2023-05-21T02:05:32.588Z,16.13
2023-05-21T02:08:03.352Z,15.65
2023-05-21T02:10:34.223Z,17.60
2023-05-21T02:13:04.421Z,16.35
2023-05-21T02:15:35.445Z,15.55
2023-05-21T02:18:05.485Z,17.17
2023-05-21T02:20:35.977Z,16.63
2023-05-21T02:23:05.590Z,16.17
2023-05-21T02:25:37.012Z,16.15
2023-05-21T02:28:07.343Z,15.35
2023-05-21T02:30:36.836Z,14.88
2023-05-21T02:33:09.318Z,15.68
2023-05-21T02:35:38.993Z,16.08
2023-05-21T02:38:09.170Z,14.40
2023-05-21T02:40:40.094Z,13.82
2023-05-21T02:43:09.744Z,15.98
2023-05-21T02:45:39.510Z,14.45
2023-05-21T02:48:09.280Z,15.38
2023-05-21T02:50:43.018Z,13.98
2023-05-21T02:53:12.572Z,16.40
2023-05-21T02:55:43.604Z,15.45
2023-05-21T02:58:14.968Z,14.18
2023-05-21T03:00:44.720Z,15.65
2023-05-21T03:03:15.259Z,15.50
2023-05-21T03:05:45.787Z,15.50
2023-05-21T03:08:15.483Z,15.50
2023-05-21T03:10:46.468Z,14.68
2023-05-21T03:13:16.395Z,14.68
2023-05-21T03:15:46.561Z,15.10
2023-05-21T03:18:16.488Z,15.68
2023-05-21T03:20:45.961Z,15.10
2023-05-21T03:23:16.884Z,14.63
2023-05-21T03:25:48.571Z,14.43
2023-05-21T03:28:19.568Z,14.18
2023-05-21T03:30:53.354Z,15.80
2023-05-21T03:33:31.879Z,13.20
2023-05-21T03:36:02.664Z,16.17
2023-05-21T18:08:17.743Z,7.20
2023-05-21T18:10:48.025Z,7.50
2023-05-21T18:13:17.752Z,6.85
2023-05-21T18:15:47.990Z,7.40
2023-05-21T18:18:21.349Z,7.07
2023-05-21T18:20:51.770Z,7.10
2023-05-21T18:23:22.781Z,7.78
2023-05-21T18:25:52.508Z,7.05
2023-05-21T18:28:22.189Z,7.72
2023-05-21T18:30:51.789Z,7.00
2023-05-21T18:33:21.342Z,7.53
2023-05-21T18:35:50.831Z,7.20
2023-05-21T18:38:20.409Z,7.25
2023-05-21T18:40:52.123Z,7.65
2023-05-21T18:43:21.679Z,7.80
2023-05-21T18:45:51.228Z,7.72
2023-05-21T18:48:20.828Z,8.15
2023-05-21T18:50:50.698Z,8.63
2023-05-21T18:53:20.485Z,7.35
2023-05-21T18:55:51.574Z,8.25
2023-05-21T18:58:21.350Z,8.18
2023-05-21T19:00:51.184Z,7.97
2023-05-21T19:03:20.720Z,8.70
2023-05-21T19:05:50.408Z,8.70
2023-05-21T19:08:21.163Z,8.00
2023-05-21T19:10:52.980Z,8.73
2023-05-21T19:13:22.762Z,8.65
2023-05-21T19:15:53.455Z,8.10
2023-05-21T19:18:30.215Z,8.38
2023-05-21T19:21:00.902Z,8.85
2023-05-21T19:23:38.370Z,9.05
2023-05-21T19:26:19.638Z,9.95
2023-05-21T19:28:53.178Z,8.90
2023-05-21T19:31:25.331Z,9.77
2023-05-21T19:33:55.125Z,9.13
2023-05-21T19:36:26.872Z,9.18
2023-05-21T19:38:58.906Z,9.25
2023-05-21T19:41:29.889Z,10.70
2023-05-21T19:43:59.467Z,9.57
2023-05-21T19:46:29.303Z,9.98
2023-05-21T19:48:59.344Z,10.18
2023-05-21T19:51:28.984Z,10.45
2023-05-21T19:54:00.114Z,9.40
2023-05-21T19:56:31.664Z,9.53
2023-05-21T19:59:01.225Z,10.40
2023-05-21T20:01:33.161Z,10.75
2023-05-21T20:04:02.864Z,9.68
2023-05-21T20:06:32.617Z,10.70
2023-05-21T20:09:02.428Z,10.63
2023-05-21T20:11:33.604Z,10.80
2023-05-21T20:14:03.235Z,10.52
2023-05-21T20:16:33.442Z,11.82
2023-05-21T20:19:03.874Z,11.30
2023-05-21T20:21:33.701Z,11.32
2023-05-21T20:24:03.676Z,12.00
2023-05-21T20:26:40.095Z,11.45
2023-05-21T20:29:09.716Z,11.18
2023-05-21T20:31:53.162Z,12.13
2023-05-21T20:34:22.828Z,11.07
2023-05-21T20:36:58.257Z,12.25
2023-05-21T20:39:29.630Z,10.82
2023-05-21T20:42:00.973Z,11.02
2023-05-21T20:44:30.554Z,12.75
2023-05-21T20:47:01.669Z,11.45
2023-05-21T20:49:33.142Z,11.90
2023-05-21T20:52:02.774Z,11.70
2023-05-21T20:54:32.286Z,11.60
2023-05-21T20:57:04.258Z,12.10
2023-05-21T20:59:34.409Z,12.17
2023-05-21T21:02:04.020Z,12.13
2023-05-21T21:04:33.565Z,11.80
2023-05-21T21:07:03.092Z,12.70
2023-05-21T21:09:32.742Z,11.70
2023-05-21T21:12:24.001Z,13.40
2023-05-21T21:14:55.343Z,13.75
2023-05-21T21:17:25.195Z,13.35
2023-05-21T21:19:54.811Z,13.05
2023-05-21T21:22:24.395Z,13.63
2023-05-21T21:24:53.886Z,13.30
2023-05-21T21:27:24.964Z,13.07
2023-05-21T21:29:54.646Z,12.73
2023-05-21T21:32:24.372Z,12.95
2023-05-21T21:34:54.163Z,13.07
2023-05-21T21:37:23.785Z,14.68
2023-05-21T21:39:54.519Z,14.85
2023-05-21T21:42:25.475Z,15.35
2023-05-21T21:44:54.988Z,14.20
2023-05-21T21:47:24.575Z,14.48
2023-05-21T21:49:54.121Z,13.95
2023-05-21T21:52:27.374Z,14.63
2023-05-21T21:54:59.674Z,14.23
2023-05-21T22:00:01.013Z,14.70
2023-05-21T22:02:30.825Z,13.95
2023-05-21T22:05:00.546Z,13.00
2023-05-21T22:07:32.114Z,13.18
2023-05-21T22:10:02.583Z,14.47
2023-05-21T22:12:33.887Z,13.30
2023-05-21T22:15:05.244Z,14.50
2023-05-21T22:17:35.918Z,15.05
2023-05-21T22:20:07.309Z,17.13
2023-05-21T22:22:36.785Z,15.25
2023-05-21T22:25:07.523Z,15.73
2023-05-21T22:27:38.635Z,14.82
2023-05-21T22:30:10.520Z,14.43
2023-05-21T22:32:40.533Z,15.80
2023-05-21T22:35:12.569Z,14.43
2023-05-21T22:37:42.333Z,14.32
2023-05-21T22:40:13.019Z,15.70
2023-05-21T22:42:46.252Z,16.15
2023-05-21T22:45:16.930Z,15.73
2023-05-21T22:47:46.553Z,15.00
2023-05-21T22:50:16.740Z,16.30
2023-05-21T22:52:46.413Z,15.48
2023-05-21T22:55:16.768Z,15.57
2023-05-21T22:57:56.832Z,15.25
2023-05-21T23:00:27.552Z,14.85
2023-05-21T23:02:57.082Z,14.50
2023-05-21T23:05:26.767Z,14.10
2023-05-21T23:07:56.329Z,15.05
2023-05-21T23:10:26.225Z,14.50
2023-05-21T23:12:57.347Z,14.15
2023-05-21T23:15:29.507Z,15.82
2023-05-21T23:18:00.553Z,15.63
2023-05-21T23:20:30.144Z,14.75
2023-05-21T23:22:59.719Z,14.88
2023-05-21T23:25:29.456Z,16.88
2023-05-21T23:28:00.330Z,16.60
2023-05-21T23:30:29.851Z,15.40
2023-05-21T23:32:59.516Z,14.38
2023-05-21T23:35:29.178Z,14.13
2023-05-21T23:37:58.684Z,15.00
2023-05-21T23:40:28.254Z,16.33
2023-05-21T23:42:59.204Z,15.60
2023-05-21T23:45:28.772Z,13.45
2023-05-21T23:47:58.438Z,15.85
2023-05-21T23:50:28.036Z,15.52
2023-05-21T23:52:57.870Z,14.52
2023-05-21T23:55:27.582Z,15.80
2023-05-21T23:57:57.108Z,15.52
